Предлагаем Вашему вниманию английскую версию страницы: AUTOTAF.ME 28630 - aviation weather forecast Zlatoust

AUTOTAF 28630 - авиапрогноз Златоуст

Сегодня рассвет 02:22 UTC, восход солнца 03:01 UTC,
местный полдень 07:44 UTC, заход солнца 12:28 UTC,
наступление темноты 13:06 UTC.

Краткий прогноз 28630 на 9 часов

AUTOTAF.ME 28630 292000Z 2921/3006 VRB02MPS CAVOK

Детальный прогноз 28630 на 24 часа

AUTOTAF.ME 28630 292000Z 2921/3021 VRB02MPS 9999 OVC190 TX06/3009Z TNM03/2921Z

Подробный табличный прогноз

Время (UTC) miniAUTOTAF на 3 ч WX FZLVL
M AGL
ICE TURB Т
(°С)
Тd
(°С)
f(%) QNH
(гПа)
WIND/T
18 VRB02MPS 9999 BKN190 SFC MOD SFC/FL40 -2 -5 81 1031 ...
21 VRB02MPS 9999 OVC190 SFC MOD SFC/FL40 -3 -5 82 1030 ...
30.10.2020
00 VRB02MPS 9999 OVC190 SFC MOD SFC/FL40 -3 -6 81 1031 ...
03 VRB02MPS 9999 OVC225 SFC -3 -6 79 1031 ...
06 VRB02MPS 9999 BKN300 1950 3 -4 63 1031 ...
09 VRB02MPS 9999 OVC225 1800 6 -2 57 1029 ...
12 VRB02MPS 9999 BKN225 1800 2 -3 67 1029 ...
15 VRB02MPS 9999 OVC225 1800 1 -6 60 1028 ...
18 VRB02MPS 9999 OVC125 1950 MOD FL150/FL160 2 -6 54 1027 ...
21 VRB02MPS 9999 OVC110 1800 MOD FL150/FL160 2 -6 57 1026 ...
31.10.2020
00 VRB02MPS 9999 OVC110 1950 MOD FL120/FL130 2 -5 60 1025 ...
03 VRB02MPS 9999 OVC120 1950 MOD FL120/FL130 1 -5 64 1024 ...
06 VRB02MPS 9999 OVC120 1950 MOD FL120/FL150 5 -2 62 1023 ...
09 VRB02MPS 9999 OVC104 1800 MOD FL120/FL130 6 0 67 1022 ...
12 VRB02MPS 9999 OVC055 1500 FBL FL90/FL190 MOD FL90/FL100 4 -1 73 1021 ...
15 VRB02MPS 9999 OVC060 1800 FBL FL110/FL190 MOD FL110/FL120 2 -1 77 1020 ...


Широта 55.2°, долгота 59.7°, высота 538 м абс.
Средняя высота рельефа местности 624 м абс.
Прогнозы обновляются четыре раза в сутки: в 02, 08, 14, 20 ч всемирного времени.


Выбрать прогноз по другой модели Златоуст
Онлайн-сводка гроз по Златоуст (для РФ и ближнего зарубежья)
Карта фактических гроз в окрестностях Златоуст
Динамические прогностические карты (ventusky.com)
Прогностическая карта высоты нижней границы облаков по Златоуст (windy.com)
Выбрать другой город

Прогноз предназначен для личного научно-познавательного использования частными лицами
и не предназначен для принятия важных решений и выполнения реальных полётов воздушных судов

При копировании или ином использовании любых материалов данного сайта ссылка на © meteocenter.asia обязательна.

1.25/1.9